Hovedside
METAR-TAF:

METAR-TAF

Lufthavner :

Ivalo, Finland

Ivalo lufthavn

breddegrad: 68-37N, lengdegrad: 027-25E, høyde over havet: 147 m

Gjeldene værobservasjon

Denne rapporten ble laget for 35 minutter siden, klokken 09:50 UTC
Vind 10 kt fra Sør-sørøst, skiftende mellom Øst-sørøst og Sør
Temperatur 14°C
Luftfuktighet 47%
Trykk 997 hPa
Sikt 10 km eller mer
Brutte skyer i en høyde av 4800 ft

METAR: EFIV 250950Z AUTO 16010KT 120V180 9999 BKN048 14/03 Q0997

Tid: 13:25 (10:25 UTC)

Varsel

Denne rapporten ble laget for 7 timer og 59 minutter siden, klokken 02:26 UTC
Varsel gyldig fra 25. klokken 03 UTC til 25. klokken 06 UTC
Vind 3 kt fra Øst
Sikt 10 km eller mer
Få skyer i en høyde av 4500 ft
Brutte skyer i en høyde av 8000 ft

TAF: EFIV 250226Z 2503/2506 10003KT 9999 FEW045 BKN080

Værobservasjoner og værvarsel for over 4000 flyplasser (METAR- og TAF-rapporter).

Tilgjengelige stasjoner er representert av de røde og gule prikkene på kartet.

Hold musepekeren over prikken for å se navnet på stasjonen.

Klikk så for å se værobservasjoner og -varsler.

For å forandre kartet kan du klikke på den grønne knappen med svart kryss for å zoome inn, på den grønne knappen med strek for å zoome ut, eller på de grønne pilene for å se tilstøtende kart.


METAR-TAF: